Time;durP1;ratioP1;P1;durP2;ratioP2;P2;SDS_P1;SDS_P2;PMS_P1;PMS_P2;Temp;Humidity;BMP_temperature;BMP_pressure;BME280_temperature;BME280_humidity;BME280_pressure;Samples;Min_cycle;Max_cycle;Signal;HPM_P1;HPM_P2
2021/11/29 00:01:57;;;;;;;6.30;3.92;;;;;;;10.18;65.90;91876.09;4985319;28;20180;-76
2021/11/29 00:04:23;;;;;;;5.80;3.97;;;;;;;10.53;64.20;91856.50;4984548;28;20046;-77
2021/11/29 00:06:49;;;;;;;5.82;3.80;;;;;;;10.49;64.19;91856.47;4981963;28;20069;-77
2021/11/29 00:09:14;;;;;;;5.60;3.05;;;;;;;10.72;62.79;91870.44;5015208;28;20024;-76
2021/11/29 00:11:41;;;;;;;7.53;4.28;;;;;;;10.59;62.28;91833.81;5017121;28;20041;-76
2021/11/29 00:14:06;;;;;;;7.50;4.38;;;;;;;10.26;64.55;91866.34;5017264;28;20101;-76
2021/11/29 00:16:32;;;;;;;5.75;4.30;;;;;;;10.49;64.00;91888.34;5015186;28;20045;-76
2021/11/29 00:18:58;;;;;;;11.98;5.97;;;;;;;10.43;63.90;91876.50;5009183;28;20034;-76
2021/11/29 00:21:23;;;;;;;8.23;4.53;;;;;;;9.41;66.98;91857.78;5013903;28;20034;-76
2021/11/29 00:23:49;;;;;;;5.82;4.90;;;;;;;9.67;67.27;91869.59;5018791;28;20026;-76
2021/11/29 00:26:16;;;;;;;5.75;4.00;;;;;;;9.81;66.23;91830.78;5014243;28;20038;-76
2021/11/29 00:28:43;;;;;;;139.05;38.97;;;;;;;8.99;69.96;91847.13;5029465;28;20056;-76
2021/11/29 00:31:09;;;;;;;22.42;8.82;;;;;;;9.72;67.64;91845.41;5012765;28;20085;-77
2021/11/29 00:33:35;;;;;;;9.95;5.18;;;;;;;9.77;67.11;91829.19;5014711;28;20413;-76
2021/11/29 00:36:00;;;;;;;17.52;9.27;;;;;;;9.48;67.95;91840.44;5012618;28;20098;-76
2021/11/29 00:38:26;;;;;;;12.10;7.75;;;;;;;9.68;68.07;91866.56;5015534;28;20017;-76
2021/11/29 00:40:52;;;;;;;13.80;7.85;;;;;;;9.44;68.85;91825.22;5014146;28;20045;-75
2021/11/29 00:43:17;;;;;;;11.13;6.95;;;;;;;9.36;69.12;91828.13;5016681;28;20169;-76
2021/11/29 00:45:43;;;;;;;8.13;4.93;;;;;;;9.80;68.42;91849.69;5013979;28;20065;-76
2021/11/29 00:48:08;;;;;;;9.73;5.10;;;;;;;9.34;69.41;91815.19;5016710;28;20010;-75
2021/11/29 00:50:38;;;;;;;11.98;6.03;;;;;;;8.78;71.94;91822.84;5011241;28;20384;-77
2021/11/29 00:53:08;;;;;;;11.48;6.03;;;;;;;9.06;71.27;91798.75;5018047;28;20044;-76
2021/11/29 00:55:34;;;;;;;12.48;5.80;;;;;;;9.35;70.34;91815.97;5016056;28;20069;-76
2021/11/29 00:58:00;;;;;;;10.27;5.05;;;;;;;9.70;69.28;91835.13;5011599;28;20032;-76
2021/11/29 01:00:27;;;;;;;10.73;6.15;;;;;;;9.35;70.17;91837.94;5011240;28;20045;-76
2021/11/29 01:02:54;;;;;;;26.17;11.07;;;;;;;9.40;70.51;91845.63;5030023;28;20028;-76
2021/11/29 01:05:20;;;;;;;14.23;8.25;;;;;;;9.75;68.66;91844.69;5015988;28;20038;-76
2021/11/29 01:07:45;;;;;;;11.73;5.57;;;;;;;10.08;67.16;91860.75;5013080;28;20741;-76
2021/11/29 01:10:12;;;;;;;12.32;5.35;;;;;;;9.98;67.13;91853.41;5010014;28;20042;-76
2021/11/29 01:12:40;;;;;;;12.48;6.38;;;;;;;10.09;67.53;91838.41;5010536;28;20098;-76
2021/11/29 01:15:08;;;;;;;10.13;6.47;;;;;;;10.22;66.60;91842.38;5012897;28;20463;-76
2021/11/29 01:17:34;;;;;;;9.15;5.80;;;;;;;10.47;65.89;91842.00;5011671;28;20029;-76
2021/11/29 01:20:00;;;;;;;11.60;6.25;;;;;;;10.37;66.20;91847.94;5014638;28;20037;-77
2021/11/29 01:22:25;;;;;;;9.90;6.07;;;;;;;10.56;65.76;91840.59;5014555;28;20065;-75
2021/11/29 01:24:50;;;;;;;6.65;4.43;;;;;;;10.23;66.64;91804.06;5012988;28;20045;-75
2021/11/29 01:27:16;;;;;;;7.80;4.60;;;;;;;9.50;69.65;91815.09;5013321;28;20114;-75
2021/11/29 01:29:41;;;;;;;6.93;3.70;;;;;;;10.10;68.71;91845.25;5011647;28;20026;-75
2021/11/29 01:32:07;;;;;;;7.88;4.53;;;;;;;9.12;70.44;91796.63;5010677;28;20468;-75
2021/11/29 01:34:32;;;;;;;9.82;5.05;;;;;;;8.88;73.50;91808.28;5010401;28;20505;-75
2021/11/29 01:36:58;;;;;;;10.30;5.47;;;;;;;9.18;72.30;91800.53;5002472;28;20580;-74
2021/11/29 01:39:24;;;;;;;6.68;5.15;;;;;;;9.30;71.13;91787.84;5008902;28;20053;-76
2021/11/29 01:41:50;;;;;;;7.10;4.80;;;;;;;8.43;74.48;91793.75;5018057;28;20030;-75
2021/11/29 01:44:17;;;;;;;14.05;6.80;;;;;;;9.01;73.85;91797.16;5012516;28;20060;-75
2021/11/29 01:46:45;;;;;;;31.23;9.68;;;;;;;9.41;72.17;91804.72;5007806;28;20050;-76
2021/11/29 01:49:11;;;;;;;17.70;7.85;;;;;;;9.70;70.38;91799.88;5012371;28;20042;-75
2021/11/29 01:51:37;;;;;;;19.23;7.75;;;;;;;9.81;70.43;91787.53;5008324;28;20042;-75
2021/11/29 01:54:04;;;;;;;12.00;6.72;;;;;;;9.88;69.47;91787.63;5011523;28;20026;-75
2021/11/29 01:56:29;;;;;;;10.60;6.03;;;;;;;10.21;67.67;91784.31;5010235;28;20029;-76
2021/11/29 01:58:55;;;;;;;9.32;5.82;;;;;;;9.83;68.69;91766.69;5009703;28;20053;-75
2021/11/29 02:01:23;;;;;;;11.57;6.53;;;;;;;9.29;70.28;91774.94;5002685;28;20635;-75
2021/11/29 02:03:56;;;;;;;12.65;6.95;;;;;;;9.81;69.19;91774.25;5001848;28;20838;-75
2021/11/29 02:06:22;;;;;;;10.77;6.68;;;;;;;9.90;68.81;91764.16;5012113;28;20412;-75
2021/11/29 02:08:47;;;;;;;11.50;6.20;;;;;;;10.09;67.74;91766.69;5011165;28;20022;-75
2021/11/29 02:11:13;;;;;;;11.85;6.97;;;;;;;10.08;67.55;91770.47;5004303;28;20053;-75
2021/11/29 02:13:39;;;;;;;13.52;7.45;;;;;;;10.37;66.93;91781.53;5007471;28;20046;-75
2021/11/29 02:16:05;;;;;;;10.45;6.32;;;;;;;10.28;66.83;91773.78;5011856;28;20065;-76
2021/11/29 02:18:32;;;;;;;10.18;6.55;;;;;;;10.28;67.29;91777.19;5007444;28;20030;-76
2021/11/29 02:21:18;;;;;;;13.15;6.80;;;;;;;10.55;66.43;91769.22;5028816;28;20030;-76
2021/11/29 02:23:51;;;;;;;12.95;7.18;;;;;;;10.74;64.81;91764.50;5017736;28;20069;-75
2021/11/29 02:26:23;;;;;;;13.25;7.07;;;;;;;10.71;65.48;91767.13;5014331;28;20030;-76
2021/11/29 02:28:55;;;;;;;10.20;6.50;;;;;;;10.74;64.89;91769.84;5012771;28;20093;-76
2021/11/29 02:31:25;;;;;;;13.25;6.75;;;;;;;9.18;69.80;91747.47;5014371;28;20056;-77
2021/11/29 02:33:51;;;;;;;12.30;5.93;;;;;;;9.62;68.56;91734.53;5016891;28;20046;-76
2021/11/29 02:36:16;;;;;;;13.43;6.25;;;;;;;9.76;68.70;91732.09;5008494;28;20139;-76
2021/11/29 02:38:42;;;;;;;14.35;6.93;;;;;;;10.04;67.79;91740.44;5016525;28;20029;-77
2021/11/29 02:41:08;;;;;;;13.43;6.68;;;;;;;10.13;67.55;91748.91;5005142;28;20041;-78
2021/11/29 02:43:33;;;;;;;12.13;6.85;;;;;;;9.99;68.13;91750.59;5014359;28;20120;-76
2021/11/29 02:45:59;;;;;;;11.43;6.18;;;;;;;9.35;69.87;91715.16;5014964;28;20052;-76
2021/11/29 02:48:48;;;;;;;6.35;4.20;;;;;;;9.35;71.39;91723.13;5019516;28;20056;-76
2021/11/29 02:51:36;;;;;;;7.25;4.60;;;;;;;9.58;70.84;91744.34;5015512;28;20043;-76
2021/11/29 02:54:27;;;;;;;8.80;5.65;;;;;;;8.89;73.53;91714.38;5005683;28;20034;-77
2021/11/29 02:56:57;;;;;;;10.93;5.72;;;;;;;9.39;72.04;91734.53;5028316;28;20098;-76
2021/11/29 02:59:25;;;;;;;11.07;5.88;;;;;;;9.38;71.75;91693.25;5018620;28;20041;-76
2021/11/29 03:01:53;;;;;;;8.55;5.53;;;;;;;9.39;72.26;91710.66;5011902;28;20832;-76
2021/11/29 03:04:20;;;;;;;8.35;5.07;;;;;;;9.23;72.86;91710.06;5016594;28;20067;-75
2021/11/29 03:06:46;;;;;;;14.20;6.07;;;;;;;9.42;72.62;91729.31;5031777;28;20045;-76
2021/11/29 03:09:13;;;;;;;12.18;7.60;;;;;;;9.31;72.08;91703.75;5015024;28;20724;-76
2021/11/29 03:11:39;;;;;;;13.43;6.50;;;;;;;9.49;71.52;91718.03;5019477;28;20041;-76
2021/11/29 03:14:06;;;;;;;12.48;5.38;;;;;;;9.49;71.57;91743.81;5018058;28;20014;-75
2021/11/29 03:16:32;;;;;;;20.20;8.02;;;;;;;9.61;71.78;91778.88;5020446;28;20048;-76
2021/11/29 03:18:58;;;;;;;9.45;5.35;;;;;;;9.41;72.97;91767.56;5019454;28;20037;-76
2021/11/29 03:21:24;;;;;;;8.07;5.03;;;;;;;9.27;73.03;91716.94;5016145;28;20049;-75
2021/11/29 03:23:52;;;;;;;3.25;1.92;;;;;;;9.51;72.02;91730.94;5012056;28;20112;-76
2021/11/29 03:26:19;;;;;;;0.80;0.80;;;;;;;9.74;69.53;91731.66;5007261;28;20066;-76
2021/11/29 03:28:52;;;;;;;0.98;0.90;;;;;;;9.58;69.93;91707.97;4999010;28;20042;-76
2021/11/29 03:31:19;;;;;;;0.73;0.50;;;;;;;9.48;69.78;91700.59;4988678;28;20052;-76
2021/11/29 03:33:46;;;;;;;0.60;0.60;;;;;;;9.15;71.16;91679.22;4993767;28;20061;-76
2021/11/29 03:36:12;;;;;;;0.50;0.50;;;;;;;9.31;69.44;91723.06;4988001;28;20119;-76
2021/11/29 03:38:38;;;;;;;0.50;0.50;;;;;;;9.00;69.42;91697.53;4993447;28;20480;-75
2021/11/29 03:41:05;;;;;;;0.50;0.50;;;;;;;8.78;69.87;91687.69;4989691;28;20044;-76
2021/11/29 03:43:30;;;;;;;0.50;0.50;;;;;;;9.05;70.60;91738.88;5004832;28;20045;-76
2021/11/29 03:45:56;;;;;;;0.50;0.50;;;;;;;9.06;71.62;91732.47;4990469;28;20568;-76
2021/11/29 03:48:22;;;;;;;1.88;0.77;;;;;;;9.14;72.19;91741.34;4991709;28;20096;-76
2021/11/29 03:50:47;;;;;;;0.63;0.52;;;;;;;9.18;72.61;91742.94;4988272;28;20479;-76
2021/11/29 03:53:13;;;;;;;0.65;0.65;;;;;;;9.12;72.68;91728.44;4989764;28;20070;-76
2021/11/29 03:55:39;;;;;;;0.50;0.50;;;;;;;9.22;72.22;91719.91;4990629;28;20038;-76
2021/11/29 03:58:05;;;;;;;0.50;0.50;;;;;;;9.35;72.94;91726.53;4980877;28;20062;-76
2021/11/29 04:00:31;;;;;;;0.50;0.50;;;;;;;9.22;73.52;91733.16;4986798;28;20129;-76
2021/11/29 04:02:56;;;;;;;0.50;0.50;;;;;;;9.19;73.66;91727.81;4983940;28;20480;-76
2021/11/29 04:05:22;;;;;;;1.70;0.65;;;;;;;8.97;73.50;91742.53;4988981;28;20049;-76
2021/11/29 04:07:48;;;;;;;0.52;0.52;;;;;;;8.79;74.51;91721.03;4984254;28;20176;-76
2021/11/29 04:10:14;;;;;;;0.50;0.50;;;;;;;8.34;73.82;91689.94;4988625;28;20038;-76
2021/11/29 04:12:40;;;;;;;0.50;0.50;;;;;;;8.50;74.93;91730.34;4984375;28;20413;-77
2021/11/29 04:15:07;;;;;;;0.60;0.60;;;;;;;8.41;74.03;91713.88;4989723;28;20080;-76
2021/11/29 04:17:33;;;;;;;0.60;0.60;;;;;;;8.36;74.16;91708.88;4985898;28;20548;-76
2021/11/29 04:19:59;;;;;;;0.50;0.50;;;;;;;8.31;73.87;91703.88;4985713;28;20769;-76
2021/11/29 04:22:24;;;;;;;0.60;0.60;;;;;;;8.32;73.62;91689.50;4989425;28;20030;-76
2021/11/29 04:24:50;;;;;;;4.82;0.60;;;;;;;8.40;74.01;91680.59;4984756;28;20084;-76
2021/11/29 04:27:16;;;;;;;0.50;0.50;;;;;;;8.50;71.65;91676.59;4985835;28;20564;-76
2021/11/29 04:29:44;;;;;;;0.55;0.55;;;;;;;8.63;71.30;91679.84;4982655;28;20038;-76
2021/11/29 04:32:10;;;;;;;0.43;0.43;;;;;;;8.50;68.39;91658.81;4985137;28;20042;-76
2021/11/29 04:34:36;;;;;;;0.50;0.50;;;;;;;8.82;69.85;91685.09;4981049;28;20538;-77
2021/11/29 04:37:03;;;;;;;0.70;0.70;;;;;;;8.79;69.15;91667.25;4993327;28;20053;-75
2021/11/29 04:39:30;;;;;;;0.50;0.50;;;;;;;8.83;69.60;91683.97;5010085;28;20037;-75
2021/11/29 04:41:55;;;;;;;0.50;0.50;;;;;;;8.77;67.60;91664.19;5016302;28;20086;-76
2021/11/29 04:44:21;;;;;;;0.40;0.40;;;;;;;8.86;67.41;91670.00;5013983;28;20049;-75
2021/11/29 04:46:46;;;;;;;0.40;0.40;;;;;;;8.82;68.11;91640.81;5005143;28;20038;-75
2021/11/29 04:49:11;;;;;;;0.40;0.40;;;;;;;8.78;69.10;91677.09;5006156;28;20041;-76
2021/11/29 04:51:37;;;;;;;0.43;0.43;;;;;;;8.90;68.82;91687.50;5014605;28;20042;-75
2021/11/29 04:54:03;;;;;;;0.57;0.57;;;;;;;9.10;68.38;91690.88;5012207;28;20031;-75
2021/11/29 04:56:28;;;;;;;0.63;0.60;;;;;;;8.99;67.72;91688.06;5011428;28;20042;-76
2021/11/29 04:58:54;;;;;;;0.40;0.40;;;;;;;8.77;68.03;91666.84;5011193;28;20034;-74
2021/11/29 05:01:20;;;;;;;0.60;0.60;;;;;;;9.06;67.24;91695.34;5010601;28;20243;-75
2021/11/29 05:03:45;;;;;;;0.50;0.50;;;;;;;8.97;66.46;91671.72;5008905;28;21386;-76
2021/11/29 05:06:11;;;;;;;0.50;0.50;;;;;;;9.08;66.37;91674.56;5008994;28;20030;-76
2021/11/29 05:08:36;;;;;;;0.50;0.50;;;;;;;9.19;65.75;91690.69;5014747;28;20053;-76
2021/11/29 05:11:03;;;;;;;0.40;0.40;;;;;;;9.10;66.95;91693.50;5013360;28;20030;-75
2021/11/29 05:13:29;;;;;;;0.40;0.40;;;;;;;9.32;66.22;91715.88;5011149;28;20486;-75
2021/11/29 05:15:54;;;;;;;0.70;0.70;;;;;;;9.48;65.71;91734.31;5016348;28;20034;-76
2021/11/29 05:18:20;;;;;;;0.50;0.50;;;;;;;9.45;64.84;91725.94;5012294;28;20038;-75
2021/11/29 05:20:45;;;;;;;0.47;0.47;;;;;;;9.45;65.36;91719.88;5012941;28;20045;-75
2021/11/29 05:23:11;;;;;;;0.45;0.45;;;;;;;9.61;65.12;91754.22;5015653;28;20041;-75
2021/11/29 05:25:38;;;;;;;0.60;0.60;;;;;;;9.39;65.42;91722.06;5012149;28;20133;-76
2021/11/29 05:28:04;;;;;;;2.00;0.90;;;;;;;9.44;65.65;91716.44;5013739;28;20038;-75
2021/11/29 05:30:30;;;;;;;0.95;0.80;;;;;;;9.67;64.91;91739.53;5010662;28;20052;-75
2021/11/29 05:32:55;;;;;;;2.15;0.75;;;;;;;9.73;64.76;91727.50;5015963;28;20026;-75
2021/11/29 05:35:21;;;;;;;6.40;3.05;;;;;;;9.72;65.58;91728.63;5006915;28;20035;-76
2021/11/29 05:37:46;;;;;;;4.97;2.03;;;;;;;9.67;65.53;91713.00;5008733;28;20777;-75
2021/11/29 05:40:12;;;;;;;6.07;2.33;;;;;;;9.79;65.69;91736.66;5007455;28;20026;-75
2021/11/29 05:42:38;;;;;;;2.13;1.00;;;;;;;9.73;66.06;91719.53;5012059;28;20093;-75
2021/11/29 05:45:04;;;;;;;12.57;4.47;;;;;;;9.93;65.97;91744.84;5016888;28;20045;-76
2021/11/29 05:47:30;;;;;;;8.38;4.57;;;;;;;9.76;65.82;91726.78;5013627;28;20085;-75
2021/11/29 05:49:55;;;;;;;8.27;3.28;;;;;;;9.78;66.06;91711.28;5012999;28;20041;-75
2021/11/29 05:52:20;;;;;;;13.48;5.97;;;;;;;9.86;66.35;91729.59;5001263;28;20534;-75
2021/11/29 05:54:46;;;;;;;6.00;2.60;;;;;;;9.89;66.23;91722.78;5013457;28;20080;-76
2021/11/29 05:57:13;;;;;;;8.15;3.88;;;;;;;9.72;66.46;91707.38;5012260;28;20530;-76
2021/11/29 05:59:38;;;;;;;5.32;2.28;;;;;;;9.73;66.54;91708.94;5012814;28;20098;-76
2021/11/29 06:02:04;;;;;;;1.65;1.23;;;;;;;9.73;66.87;91695.66;5007435;28;20054;-77
2021/11/29 06:04:30;;;;;;;10.52;5.13;;;;;;;9.96;66.21;91722.13;5009831;28;20097;-75
2021/11/29 06:06:55;;;;;;;8.30;4.07;;;;;;;10.11;66.01;91753.06;5012442;28;20116;-75
2021/11/29 06:09:20;;;;;;;2.95;2.45;;;;;;;9.81;65.54;91699.94;5008708;28;20069;-76
2021/11/29 06:11:46;;;;;;;2.08;1.80;;;;;;;10.12;65.55;91742.06;5010192;28;20894;-75
2021/11/29 06:14:12;;;;;;;1.95;1.75;;;;;;;10.24;65.38;91733.13;5027569;28;20030;-76
2021/11/29 06:16:37;;;;;;;3.42;2.00;;;;;;;10.25;64.34;91718.72;5014756;28;20058;-76
2021/11/29 06:19:03;;;;;;;4.07;2.33;;;;;;;10.44;64.50;91747.81;5011065;28;20049;-75
2021/11/29 06:21:28;;;;;;;4.32;1.92;;;;;;;10.52;64.11;91753.97;5008417;28;20050;-76
2021/11/29 06:23:54;;;;;;;3.63;1.50;;;;;;;10.63;64.09;91744.25;5008166;28;20116;-76
2021/11/29 06:26:20;;;;;;;2.05;1.73;;;;;;;10.86;63.01;91744.09;5012614;28;20046;-75
2021/11/29 06:28:46;;;;;;;1.60;1.45;;;;;;;10.87;62.90;91738.44;5016315;28;20041;-75
2021/11/29 06:31:12;;;;;;;3.10;1.48;;;;;;;10.88;62.07;91739.97;5009416;28;20022;-75
2021/11/29 06:33:37;;;;;;;2.13;1.67;;;;;;;10.80;62.43;91746.34;5012774;28;20060;-75
2021/11/29 06:36:03;;;;;;;2.67;1.50;;;;;;;10.91;63.20;91789.00;5017066;28;20060;-75
2021/11/29 06:38:28;;;;;;;2.88;1.38;;;;;;;10.26;65.34;91776.81;5017738;28;20049;-75
2021/11/29 06:40:56;;;;;;;2.40;1.27;;;;;;;10.18;66.21;91777.06;5004404;28;21088;-75
2021/11/29 06:43:22;;;;;;;3.40;1.60;;;;;;;10.78;64.30;91793.03;5010248;28;20604;-75
2021/11/29 06:45:49;;;;;;;2.58;1.67;;;;;;;11.04;63.50;91807.03;5009590;28;20038;-76
2021/11/29 06:48:14;;;;;;;5.20;2.28;;;;;;;10.76;62.98;91777.44;5012618;28;20055;-76
2021/11/29 06:50:40;;;;;;;3.92;2.40;;;;;;;10.87;63.34;91802.25;5014801;28;20278;-76
2021/11/29 06:53:06;;;;;;;4.90;2.60;;;;;;;11.11;62.58;91791.13;5009203;28;20061;-77
2021/11/29 06:55:32;;;;;;;7.80;3.25;;;;;;;11.07;62.15;91769.03;4984348;28;20044;-77
2021/11/29 06:57:59;;;;;;;9.02;4.45;;;;;;;11.54;61.86;91828.84;4982603;28;20449;-76
2021/11/29 07:00:25;;;;;;;8.05;3.22;;;;;;;11.62;61.15;91827.78;4976256;28;20422;-76
2021/11/29 07:02:52;;;;;;;5.20;3.17;;;;;;;11.58;61.21;91803.03;4985658;28;21034;-77
2021/11/29 07:05:18;;;;;;;8.73;4.18;;;;;;;11.75;60.77;91823.69;4980692;28;20030;-77
2021/11/29 07:07:45;;;;;;;8.70;3.30;;;;;;;11.14;62.47;91821.56;4983572;28;22180;-77
2021/11/29 07:10:11;;;;;;;3.72;2.20;;;;;;;10.88;65.29;91834.94;4981317;28;21013;-76
2021/11/29 07:12:40;;;;;;;4.57;3.22;;;;;;;11.26;64.07;91841.81;4985359;28;20046;-77
2021/11/29 07:15:06;;;;;;;6.47;3.47;;;;;;;11.31;63.46;91825.53;4997823;28;20400;-76
2021/11/29 07:17:32;;;;;;;6.18;2.92;;;;;;;11.02;63.35;91787.22;4977049;28;20030;-77
2021/11/29 07:19:57;;;;;;;4.75;3.47;;;;;;;11.50;62.33;91814.69;4983174;28;20029;-77
2021/11/29 07:22:24;;;;;;;6.28;3.58;;;;;;;11.74;62.41;91862.09;4979952;28;20041;-76
2021/11/29 07:24:52;;;;;;;5.68;3.55;;;;;;;11.60;62.92;91843.34;4985019;28;20042;-76
2021/11/29 07:27:18;;;;;;;3.17;2.20;;;;;;;11.03;64.54;91832.09;5001577;28;20040;-76
2021/11/29 07:29:44;;;;;;;3.95;2.38;;;;;;;11.46;63.67;91835.19;5012701;28;20005;-76
2021/11/29 07:32:09;;;;;;;5.03;2.80;;;;;;;11.78;62.80;91838.94;5017669;28;20034;-76
2021/11/29 07:34:35;;;;;;;3.78;2.38;;;;;;;11.13;65.10;91833.31;5014707;28;20041;-76
2021/11/29 07:37:01;;;;;;;6.35;3.15;;;;;;;11.82;62.63;91845.06;5017470;28;20089;-76
2021/11/29 07:39:26;;;;;;;5.70;3.42;;;;;;;11.90;62.07;91832.56;5016948;28;20045;-75
2021/11/29 07:41:53;;;;;;;7.95;4.07;;;;;;;11.87;62.50;91843.97;5015663;28;20026;-76
2021/11/29 07:44:19;;;;;;;7.72;3.60;;;;;;;11.84;62.58;91858.75;5013689;28;20619;-76
2021/11/29 07:46:44;;;;;;;6.32;3.63;;;;;;;11.54;63.68;91839.50;5019210;28;20037;-76
2021/11/29 07:49:10;;;;;;;7.95;4.38;;;;;;;11.52;63.76;91853.16;5018532;28;20066;-76
2021/11/29 07:51:35;;;;;;;7.90;3.72;;;;;;;11.70;62.99;91849.88;5012368;28;20053;-76
2021/11/29 07:54:00;;;;;;;7.22;3.95;;;;;;;11.92;62.64;91854.28;5016288;28;20061;-75
2021/11/29 07:56:26;;;;;;;7.70;4.32;;;;;;;11.87;61.93;91847.41;5015480;28;20028;-75
2021/11/29 07:58:52;;;;;;;6.15;3.38;;;;;;;12.10;60.98;91849.09;5014735;28;20033;-76
2021/11/29 08:01:17;;;;;;;5.05;2.78;;;;;;;12.10;61.03;91854.41;5018831;28;20027;-75
2021/11/29 08:03:43;;;;;;;5.22;3.15;;;;;;;12.07;61.05;91839.94;5013957;28;20572;-76
2021/11/29 08:06:08;;;;;;;4.72;3.30;;;;;;;11.38;63.82;91837.03;5015677;28;20017;-76
2021/11/29 08:08:34;;;;;;;12.27;5.38;;;;;;;11.71;63.25;91828.22;5015336;28;20033;-77
2021/11/29 08:10:59;;;;;;;8.05;5.38;;;;;;;11.79;63.91;91837.03;5011515;28;20049;-76
2021/11/29 08:13:25;;;;;;;22.20;9.27;;;;;;;11.98;63.01;91829.59;5010958;28;20038;-76
2021/11/29 08:15:50;;;;;;;9.30;5.45;;;;;;;12.10;63.09;91859.75;5015491;28;20052;-75
2021/11/29 08:18:16;;;;;;;9.30;4.85;;;;;;;12.26;61.77;91884.25;5014741;28;20010;-75
2021/11/29 08:20:41;;;;;;;10.38;5.05;;;;;;;12.04;62.25;91854.75;5014269;28;20063;-75
2021/11/29 08:23:08;;;;;;;12.52;5.85;;;;;;;10.87;68.09;91871.38;5017863;28;20037;-75
2021/11/29 08:25:34;;;;;;;26.95;10.48;;;;;;;11.01;66.41;91871.56;5014444;28;20045;-76
2021/11/29 08:28:00;;;;;;;5.65;2.05;;;;;;;10.67;62.10;91944.41;5016790;28;20053;-75
2021/11/29 08:30:26;;;;;;;3.53;1.15;;;;;;;9.72;61.13;92012.63;5017034;28;20050;-74
2021/11/29 08:32:54;;;;;;;1.23;0.90;;;;;;;8.83;61.22;92031.97;5012730;28;20006;-74
2021/11/29 08:35:20;;;;;;;1.58;0.80;;;;;;;8.08;62.80;92047.16;5009836;28;20057;-76
2021/11/29 08:37:46;;;;;;;0.80;0.80;;;;;;;7.52;64.49;92039.25;5005798;28;20080;-76
2021/11/29 08:40:14;;;;;;;0.90;0.90;;;;;;;7.30;65.10;92063.53;5013274;28;20037;-75
2021/11/29 08:42:40;;;;;;;0.90;0.90;;;;;;;6.98;64.86;92075.06;5010200;28;20065;-76
2021/11/29 08:45:06;;;;;;;1.15;1.00;;;;;;;6.66;65.87;92066.91;5015078;28;20054;-76
2021/11/29 08:47:31;;;;;;;1.38;1.10;;;;;;;6.48;66.67;92047.09;5013506;28;20050;-76
2021/11/29 08:49:57;;;;;;;2.35;1.15;;;;;;;6.72;67.24;92084.09;5017588;28;20045;-77
2021/11/29 08:52:24;;;;;;;1.88;1.20;;;;;;;6.36;68.17;92076.91;5013805;28;20034;-75
2021/11/29 08:54:49;;;;;;;5.95;1.58;;;;;;;6.38;68.43;92087.13;5015818;28;20042;-76
2021/11/29 08:57:15;;;;;;;2.40;1.10;;;;;;;6.50;69.08;92081.88;5014969;28;20061;-76
2021/11/29 08:59:40;;;;;;;3.03;1.00;;;;;;;6.28;69.91;92084.91;5030614;28;20022;-76
2021/11/29 09:02:06;;;;;;;1.95;1.10;;;;;;;6.08;70.01;92101.56;5012798;28;20064;-75
2021/11/29 09:04:32;;;;;;;2.83;1.00;;;;;;;5.97;70.27;92109.09;5010318;28;20037;-76
2021/11/29 09:06:57;;;;;;;2.22;1.33;;;;;;;5.73;70.19;92111.66;5014268;28;20046;-76
2021/11/29 09:09:23;;;;;;;1.92;1.20;;;;;;;5.35;70.40;92102.03;5009086;28;20053;-75
2021/11/29 09:11:49;;;;;;;3.50;1.50;;;;;;;5.26;71.14;92122.41;5005038;28;20030;-75
2021/11/29 09:14:15;;;;;;;5.57;1.83;;;;;;;5.51;71.50;92141.78;5010268;28;20080;-74
2021/11/29 09:16:40;;;;;;;2.35;1.90;;;;;;;5.64;71.75;92130.19;5011324;28;20037;-76
2021/11/29 09:19:06;;;;;;;1.92;0.95;;;;;;;5.32;72.00;92101.91;5011903;28;20041;-75
2021/11/29 09:21:32;;;;;;;2.55;1.20;;;;;;;5.51;71.01;92160.25;5010451;28;20046;-75
2021/11/29 09:23:58;;;;;;;1.23;0.90;;;;;;;5.16;72.29;92162.31;5010582;28;20116;-75
2021/11/29 09:26:24;;;;;;;0.80;0.70;;;;;;;5.08;70.89;92137.56;5010016;28;20029;-75
2021/11/29 09:28:49;;;;;;;0.77;0.77;;;;;;;5.18;71.45;92148.84;5011187;28;20036;-74
2021/11/29 09:31:15;;;;;;;0.80;0.80;;;;;;;5.21;71.48;92143.69;5005856;28;20134;-75
2021/11/29 09:33:41;;;;;;;0.80;0.80;;;;;;;5.25;70.46;92122.72;5006845;28;20046;-76
2021/11/29 09:36:07;;;;;;;2.47;1.05;;;;;;;5.25;71.10;92112.19;5009083;28;20153;-76
2021/11/29 09:38:32;;;;;;;1.50;0.90;;;;;;;5.53;70.93;92132.44;5003008;28;20068;-76
2021/11/29 09:40:59;;;;;;;1.98;0.80;;;;;;;5.54;69.88;92105.00;5007916;28;20139;-75
2021/11/29 09:43:25;;;;;;;1.42;1.30;;;;;;;5.75;70.28;92131.34;5014215;28;20104;-75
2021/11/29 09:45:51;;;;;;;2.72;1.27;;;;;;;5.85;70.11;92130.97;5008667;28;20045;-75
2021/11/29 09:48:17;;;;;;;5.40;1.95;;;;;;;5.98;69.66;92127.25;5015133;28;20062;-76
2021/11/29 09:50:46;;;;;;;3.80;1.23;;;;;;;6.17;68.46;92115.47;5011121;28;20026;-75
2021/11/29 09:53:15;;;;;;;2.15;1.25;;;;;;;6.19;68.43;92118.56;5010653;28;20037;-77
2021/11/29 09:55:41;;;;;;;4.30;1.10;;;;;;;5.92;68.18;92088.22;5013440;28;20046;-76
2021/11/29 09:58:07;;;;;;;1.13;0.80;;;;;;;5.97;67.04;92106.47;5006994;28;21996;-76
2021/11/29 10:00:38;;;;;;;2.50;1.48;;;;;;;6.10;66.76;92120.50;5010018;28;20018;-76
2021/11/29 10:03:04;;;;;;;2.05;1.00;;;;;;;6.13;67.29;92117.19;5009321;28;20009;-76
2021/11/29 10:05:31;;;;;;;0.90;0.90;;;;;;;6.18;66.60;92117.00;5013682;28;20021;-76
2021/11/29 10:07:56;;;;;;;1.00;0.73;;;;;;;6.27;66.43;92109.78;5016318;28;20033;-76
2021/11/29 10:10:31;;;;;;;1.08;0.98;;;;;;;6.31;66.40;92122.00;5010771;28;20026;-76
2021/11/29 10:13:00;;;;;;;1.03;1.03;;;;;;;6.30;66.94;92140.81;5008919;28;20050;-76
2021/11/29 10:15:29;;;;;;;1.50;1.08;;;;;;;6.34;67.54;92146.97;5015359;28;20258;-77
2021/11/29 10:18:27;;;;;;;1.48;1.10;;;;;;;6.49;67.02;92149.00;5020333;28;20011;-76
2021/11/29 10:20:58;;;;;;;1.40;1.05;;;;;;;6.45;66.29;92119.06;5014030;28;20050;-75
2021/11/29 10:23:32;;;;;;;1.27;0.95;;;;;;;6.16;67.16;92100.75;5009979;28;20424;-75
2021/11/29 10:26:00;;;;;;;1.33;1.20;;;;;;;5.96;68.37;92118.91;5025540;28;20809;-77
2021/11/29 10:28:32;;;;;;;1.73;1.63;;;;;;;5.95;68.32;92114.72;5012230;28;20089;-76
2021/11/29 10:31:08;;;;;;;4.22;2.20;;;;;;;5.75;68.15;92091.78;5003885;28;20071;-76
2021/11/29 10:33:42;;;;;;;3.05;2.35;;;;;;;5.67;68.92;92087.38;5031016;28;20042;-76
2021/11/29 10:36:13;;;;;;;3.58;2.78;;;;;;;5.81;68.95;92076.53;5007153;28;20051;-77
2021/11/29 10:38:40;;;;;;;4.45;2.38;;;;;;;5.86;68.98;92084.25;5015674;28;20144;-76
2021/11/29 10:41:07;;;;;;;3.00;2.33;;;;;;;5.98;68.85;92103.53;5028278;28;20038;-76
2021/11/29 10:43:44;;;;;;;7.35;3.15;;;;;;;5.99;69.00;92077.91;5012549;28;20037;-76
2021/11/29 10:46:17;;;;;;;2.53;1.98;;;;;;;5.91;68.39;92061.06;5012505;28;20037;-76
2021/11/29 10:48:43;;;;;;;2.47;1.85;;;;;;;6.12;68.64;92091.88;5011379;28;20053;-76
2021/11/29 10:51:10;;;;;;;3.17;2.22;;;;;;;6.18;68.08;92080.84;5012285;28;20056;-76
2021/11/29 10:53:50;;;;;;;3.33;1.67;;;;;;;6.45;67.18;92090.03;5007691;28;20037;-77
2021/11/29 10:56:15;;;;;;;2.95;1.33;;;;;;;6.29;67.01;92076.69;5002300;28;20029;-74
2021/11/29 10:58:43;;;;;;;2.67;1.20;;;;;;;6.50;65.12;92065.28;5010531;28;20042;-76
2021/11/29 11:01:08;;;;;;;2.17;1.50;;;;;;;6.69;65.06;92076.06;5012850;28;20034;-77
2021/11/29 11:03:54;;;;;;;2.53;1.83;;;;;;;6.84;64.62;92102.59;4997599;28;20053;-76
2021/11/29 11:06:30;;;;;;;2.83;2.15;;;;;;;6.73;65.24;92080.34;5019885;28;20042;-77
2021/11/29 11:08:56;;;;;;;5.32;2.67;;;;;;;7.02;63.58;92089.91;5017408;28;20019;-76
2021/11/29 11:11:35;;;;;;;4.43;2.33;;;;;;;6.86;65.90;92110.94;5025821;28;20603;-74
2021/11/29 11:14:10;;;;;;;2.03;1.50;;;;;;;7.31;63.03;92099.47;5000857;28;20185;-74
2021/11/29 11:16:49;;;;;;;2.75;2.08;;;;;;;7.36;63.16;92099.22;5014626;28;20030;-75
2021/11/29 11:19:33;;;;;;;4.07;2.45;;;;;;;6.98;64.16;92082.97;5011417;28;20049;-76
2021/11/29 11:22:10;;;;;;;3.42;2.20;;;;;;;7.32;63.11;92068.50;5014359;28;20038;-76
2021/11/29 11:24:39;;;;;;;8.10;4.88;;;;;;;7.40;64.21;92076.28;5015173;28;20050;-75
2021/11/29 11:27:06;;;;;;;4.80;3.20;;;;;;;7.30;65.29;92076.75;5011880;28;20098;-76
2021/11/29 11:29:40;;;;;;;3.00;2.30;;;;;;;7.09;64.81;92081.44;5015020;28;20038;-75
2021/11/29 11:32:09;;;;;;;5.82;3.80;;;;;;;7.01;65.32;92074.38;5014310;28;20385;-76
2021/11/29 11:34:36;;;;;;;7.43;3.17;;;;;;;7.63;64.56;92073.94;5015048;28;20044;-76
2021/11/29 11:37:01;;;;;;;6.13;4.35;;;;;;;7.93;62.10;92066.44;5016411;28;20588;-76